Wetterdaten: Woche 12.12.11 - 18.12.11 (KW50)
Datum Zeit Temp. Innen Temp. Aussen UV X Diff Temp. Feuchte Inne Feuchte Auss Sonnenschein Luftdruck Regen ab 0,1 Wind Sonnenschein T Regendauer Windben
12.12.2011 00:00 13,7 C 5,0 C 0,0 UV-I 0,0 C 48 % 81 % 0 % 1004,9 hPa 0,0 l/m 8,4 km/h (2 Bft) 0,00 h 0,00 h 11,3 km/h (2 Bft)
12.12.2011 01:00 13,7 C 4,7 C 0,0 UV-I 0,0 C 48 % 83 % 0 % 1004,3 hPa 0,0 l/m 7,3 km/h (2 Bft) 0,00 h 0,03 h 9,3 km/h (2 Bft)
12.12.2011 02:00 13,7 C 4,9 C 0,0 UV-I 0,0 C 49 % 86 % 0 % 1003,0 hPa 0,1 l/m 6,9 km/h (2 Bft) 0,00 h 0,13 h 8,5 km/h (2 Bft)
12.12.2011 03:00 13,8 C 5,4 C 0,0 UV-I 0,0 C 50 % 89 % 0 % 1001,7 hPa 0,1 l/m 10,4 km/h (2 Bft) 0,00 h 0,20 h 14,2 km/h (3 Bft)
12.12.2011 04:00 13,8 C 6,0 C 0,0 UV-I 0,0 C 51 % 89 % 0 % 1000,6 hPa 0,0 l/m 8,4 km/h (2 Bft) 0,00 h 0,03 h 10,4 km/h (2 Bft)
12.12.2011 05:00 13,9 C 6,3 C 0,0 UV-I 0,0 C 52 % 90 % 0 % 1000,0 hPa 0,0 l/m 6,0 km/h (2 Bft) 0,00 h 0,03 h 8,4 km/h (2 Bft)
12.12.2011 06:00 13,9 C 6,6 C 0,0 UV-I 0,0 C 53 % 90 % 0 % 999,7 hPa 0,4 l/m 5,1 km/h (1 Bft) 0,00 h 0,40 h 8,1 km/h (2 Bft)
12.12.2011 07:00 13,9 C 7,5 C 0,0 UV-I 0,0 C 54 % 91 % 0 % 1000,0 hPa 1,5 l/m 2,0 km/h (1 Bft) 0,00 h 1,00 h 6,0 km/h (2 Bft)
12.12.2011 08:00 14,0 C 8,2 C 0,0 UV-I 0,0 C 57 % 91 % 0 % 1000,4 hPa 0,9 l/m 6,2 km/h (2 Bft) 0,00 h 0,13 h 11,3 km/h (2 Bft)
12.12.2011 09:00 14,0 C 8,0 C 0,0 UV-I 0,0 C 58 % 91 % 0 % 1001,5 hPa 0,4 l/m 7,7 km/h (2 Bft) 0,00 h 0,53 h 13,7 km/h (3 Bft)
12.12.2011 10:00 14,0 C 7,9 C 0,0 UV-I 0,0 C 58 % 91 % 0 % 1003,1 hPa 0,0 l/m 5,9 km/h (2 Bft) 0,00 h 0,13 h 11,9 km/h (2 Bft)
12.12.2011 11:00 14,1 C 7,9 C 0,0 UV-I 0,0 C 57 % 90 % 0 % 1004,4 hPa 0,0 l/m 8,6 km/h (2 Bft) 0,00 h 0,00 h 15,0 km/h (3 Bft)
12.12.2011 12:00 14,3 C 7,9 C 0,0 UV-I 0,0 C 56 % 87 % 0 % 1005,3 hPa 0,0 l/m 9,7 km/h (2 Bft) 0,00 h 0,00 h 17,1 km/h (3 Bft)
12.12.2011 13:00 14,4 C 7,7 C 0,0 UV-I 0,7 C 54 % 80 % 19 % 1006,4 hPa 0,1 l/m 10,6 km/h (2 Bft) 0,10 h 0,00 h 16,4 km/h (3 Bft)
12.12.2011 14:00 15,0 C 7,8 C 0,0 UV-I 1,6 C 51 % 76 % 46 % 1007,7 hPa 0,0 l/m 9,0 km/h (2 Bft) 0,57 h 0,00 h 17,0 km/h (3 Bft)
12.12.2011 15:00 15,0 C 7,5 C 0,0 UV-I 0,0 C 49 % 74 % 0 % 1008,2 hPa 0,0 l/m 8,1 km/h (2 Bft) 0,00 h 0,00 h 12,8 km/h (3 Bft)
12.12.2011 16:00 14,5 C 7,0 C 0,0 UV-I 0,0 C 49 % 75 % 0 % 1008,6 hPa 0,0 l/m 5,7 km/h (1 Bft) 0,00 h 0,00 h 11,0 km/h (2 Bft)
12.12.2011 17:00 14,2 C 7,0 C 0,0 UV-I 0,0 C 49 % 75 % 0 % 1009,2 hPa 0,0 l/m 6,9 km/h (2 Bft) 0,00 h 0,00 h 13,8 km/h (3 Bft)
12.12.2011 18:00 13,9 C 6,7 C 0,0 UV-I 0,0 C 50 % 79 % 0 % 1009,5 hPa 0,0 l/m 8,6 km/h (2 Bft) 0,00 h 0,00 h 13,5 km/h (3 Bft)
12.12.2011 19:00 13,8 C 6,4 C 0,0 UV-I 0,0 C 51 % 82 % 0 % 1009,9 hPa 0,0 l/m 8,6 km/h (2 Bft) 0,00 h 0,00 h 14,0 km/h (3 Bft)
12.12.2011 20:00 13,4 C 6,4 C 0,0 UV-I 0,0 C 52 % 82 % 0 % 1009,2 hPa 0,0 l/m 8,2 km/h (2 Bft) 0,00 h 0,00 h 15,6 km/h (3 Bft)
12.12.2011 21:00 13,4 C 6,4 C 0,0 UV-I 0,0 C 52 % 81 % 0 % 1008,7 hPa 0,0 l/m 8,3 km/h (2 Bft) 0,00 h 0,00 h 14,1 km/h (3 Bft)
12.12.2011 22:00 13,5 C 6,3 C 0,0 UV-I 0,0 C 52 % 81 % 0 % 1008,3 hPa 0,0 l/m 7,0 km/h (2 Bft) 0,00 h 0,00 h 12,2 km/h (2 Bft)
12.12.2011 23:00 13,5 C 6,4 C 0,0 UV-I 0,0 C 52 % 79 % 0 % 1008,0 hPa 0,0 l/m 8,7 km/h (2 Bft) 0,00 h 0,00 h 15,1 km/h (3 Bft)
13.12.2011 00:00 13,6 C 6,6 C 0,0 UV-I 0,0 C 51 % 78 % 0 % 1006,4 hPa 0,0 l/m 9,1 km/h (2 Bft) 0,00 h 0,00 h 19,4 km/h (3 Bft)
13.12.2011 01:00 13,6 C 6,9 C 0,0 UV-I 0,0 C 51 % 76 % 0 % 1004,5 hPa 0,0 l/m 10,9 km/h (2 Bft) 0,00 h 0,00 h 18,8 km/h (3 Bft)
13.12.2011 02:00 13,6 C 7,4 C 0,0 UV-I 0,0 C 50 % 73 % 0 % 1002,4 hPa 0,0 l/m 12,7 km/h (3 Bft) 0,00 h 0,00 h 24,4 km/h (4 Bft)
13.12.2011 03:00 13,6 C 7,6 C 0,0 UV-I 0,0 C 50 % 73 % 0 % 1000,6 hPa 0,5 l/m 12,2 km/h (2 Bft) 0,00 h 0,43 h 26,6 km/h (4 Bft)
13.12.2011 04:00 13,6 C 6,6 C 0,0 UV-I 0,0 C 52 % 83 % 0 % 998,4 hPa 2,5 l/m 12,9 km/h (3 Bft) 0,00 h 0,00 h 25,8 km/h (4 Bft)
13.12.2011 05:00 13,6 C 6,6 C 0,0 UV-I 0,0 C 54 % 85 % 0 % 996,2 hPa 0,9 l/m 14,0 km/h (3 Bft) 0,00 h 0,00 h 27,3 km/h (4 Bft)
13.12.2011 06:00 13,6 C 7,4 C 0,0 UV-I 0,0 C 54 % 85 % 0 % 994,7 hPa 0,2 l/m 12,6 km/h (3 Bft) 0,00 h 0,00 h 23,0 km/h (4 Bft)
13.12.2011 07:00 13,6 C 8,4 C 0,0 UV-I 0,0 C 55 % 82 % 0 % 993,9 hPa 0,0 l/m 12,9 km/h (3 Bft) 0,00 h 0,00 h 21,4 km/h (4 Bft)
13.12.2011 08:00 13,7 C 9,4 C 0,0 UV-I 0,0 C 55 % 80 % 0 % 993,2 hPa 0,0 l/m 14,7 km/h (3 Bft) 0,00 h 0,00 h 23,9 km/h (4 Bft)
13.12.2011 09:00 14,0 C 10,3 C 0,0 UV-I 0,0 C 55 % 78 % 0 % 992,8 hPa 0,0 l/m 14,2 km/h (3 Bft) 0,00 h 0,00 h 22,0 km/h (4 Bft)
13.12.2011 10:00 14,2 C 11,2 C 0,0 UV-I 0,0 C 56 % 76 % 0 % 992,8 hPa 0,0 l/m 15,8 km/h (3 Bft) 0,00 h 0,00 h 28,8 km/h (4 Bft)
13.12.2011 11:00 14,6 C 11,7 C 0,0 UV-I 0,0 C 56 % 75 % 0 % 992,4 hPa 0,0 l/m 18,6 km/h (3 Bft) 0,00 h 0,07 h 27,5 km/h (4 Bft)
13.12.2011 12:00 14,8 C 10,1 C 0,0 UV-I 0,0 C 58 % 82 % 0 % 993,2 hPa 1,7 l/m 17,6 km/h (3 Bft) 0,00 h 0,03 h 32,2 km/h (5 Bft)
13.12.2011 13:00 14,9 C 9,9 C 0,0 UV-I 0,5 C 58 % 84 % 15 % 993,5 hPa 0,0 l/m 12,1 km/h (2 Bft) 0,00 h 0,00 h 19,7 km/h (3 Bft)
13.12.2011 14:00 15,2 C 9,6 C 0,0 UV-I 0,1 C 57 % 83 % 2 % 994,3 hPa 0,9 l/m 13,2 km/h (3 Bft) 0,00 h 0,77 h 20,4 km/h (4 Bft)
13.12.2011 15:00 14,7 C 8,7 C 0,0 UV-I 0,0 C 56 % 81 % 0 % 995,0 hPa 0,1 l/m 8,8 km/h (2 Bft) 0,00 h 0,23 h 12,6 km/h (3 Bft)
13.12.2011 16:00 14,3 C 8,0 C 0,0 UV-I 0,0 C 56 % 82 % 0 % 996,1 hPa 0,2 l/m 6,5 km/h (2 Bft) 0,00 h 0,20 h 12,4 km/h (3 Bft)
13.12.2011 17:00 14,2 C 7,8 C 0,0 UV-I 0,0 C 55 % 79 % 0 % 996,7 hPa 0,0 l/m 9,0 km/h (2 Bft) 0,00 h 0,00 h 13,7 km/h (3 Bft)
13.12.2011 18:00 14,1 C 7,6 C 0,0 UV-I 0,0 C 54 % 78 % 0 % 997,3 hPa 0,0 l/m 12,0 km/h (2 Bft) 0,00 h 0,00 h 18,7 km/h (3 Bft)
13.12.2011 19:00 14,1 C 7,5 C 0,0 UV-I 0,0 C 52 % 77 % 0 % 998,4 hPa 0,1 l/m 12,3 km/h (3 Bft) 0,00 h 0,23 h 18,7 km/h (3 Bft)
13.12.2011 20:00 13,9 C 6,2 C 0,0 UV-I 0,0 C 53 % 83 % 0 % 999,5 hPa 0,2 l/m 11,2 km/h (2 Bft) 0,00 h 0,17 h 19,9 km/h (4 Bft)
13.12.2011 21:00 13,7 C 5,7 C 0,0 UV-I 0,0 C 54 % 86 % 0 % 999,3 hPa 0,1 l/m 10,9 km/h (2 Bft) 0,00 h 0,27 h 21,1 km/h (4 Bft)
13.12.2011 22:00 13,6 C 6,5 C 0,0 UV-I 0,0 C 54 % 84 % 0 % 999,5 hPa 0,0 l/m 10,9 km/h (2 Bft) 0,00 h 0,00 h 18,9 km/h (3 Bft)
13.12.2011 23:00 13,8 C 7,4 C 0,0 UV-I 0,0 C 52 % 78 % 0 % 999,8 hPa 0,0 l/m 12,9 km/h (3 Bft) 0,00 h 0,00 h 23,4 km/h (4 Bft)
14.12.2011 00:00 13,7 C 7,1 C 0,0 UV-I 0,0 C 52 % 78 % 0 % 999,9 hPa 0,0 l/m 8,6 km/h (2 Bft) 0,00 h 0,00 h 12,5 km/h (3 Bft)
14.12.2011 01:00 13,6 C 7,0 C 0,0 UV-I 0,0 C 52 % 79 % 0 % 1000,3 hPa 0,0 l/m 8,9 km/h (2 Bft) 0,00 h 0,00 h 17,2 km/h (3 Bft)
14.12.2011 02:00 13,6 C 6,6 C 0,0 UV-I 0,0 C 52 % 78 % 0 % 1000,1 hPa 0,0 l/m 7,4 km/h (2 Bft) 0,00 h 0,00 h 14,0 km/h (3 Bft)
14.12.2011 03:00 13,6 C 6,7 C 0,0 UV-I 0,0 C 52 % 77 % 0 % 999,2 hPa 0,0 l/m 7,3 km/h (2 Bft) 0,00 h 0,00 h 14,0 km/h (3 Bft)
14.12.2011 04:00 13,6 C 6,7 C 0,0 UV-I 0,0 C 52 % 77 % 0 % 998,4 hPa 0,0 l/m 7,7 km/h (2 Bft) 0,00 h 0,00 h 14,4 km/h (3 Bft)
14.12.2011 05:00 13,7 C 6,5 C 0,0 UV-I 0,0 C 52 % 79 % 0 % 997,2 hPa 0,0 l/m 7,6 km/h (2 Bft) 0,00 h 0,30 h 14,5 km/h (3 Bft)
14.12.2011 06:00 13,8 C 6,1 C 0,0 UV-I 0,0 C 53 % 82 % 0 % 995,4 hPa 0,9 l/m 4,5 km/h (1 Bft) 0,00 h 0,97 h 7,8 km/h (2 Bft)
14.12.2011 07:00 13,9 C 6,3 C 0,0 UV-I 0,0 C 54 % 87 % 0 % 992,5 hPa 2,1 l/m 11,5 km/h (2 Bft) 0,00 h 1,00 h 17,3 km/h (3 Bft)
14.12.2011 08:00 13,9 C 7,4 C 0,0 UV-I 0,0 C 55 % 87 % 0 % 991,7 hPa 0,4 l/m 11,3 km/h (2 Bft) 0,00 h 0,70 h 20,7 km/h (4 Bft)
14.12.2011 09:00 14,0 C 8,4 C 0,0 UV-I 0,0 C 56 % 85 % 0 % 992,7 hPa 1,0 l/m 15,4 km/h (3 Bft) 0,00 h 0,70 h 29,2 km/h (5 Bft)
14.12.2011 10:00 14,0 C 7,1 C 0,0 UV-I 0,0 C 56 % 87 % 0 % 994,3 hPa 0,1 l/m 11,8 km/h (2 Bft) 0,00 h 0,50 h 17,9 km/h (3 Bft)
14.12.2011 11:00 13,9 C 6,9 C 0,0 UV-I 0,0 C 56 % 89 % 0 % 994,7 hPa 0,0 l/m 6,7 km/h (2 Bft) 0,00 h 0,27 h 10,7 km/h (2 Bft)
14.12.2011 12:00 14,0 C 6,9 C 0,0 UV-I 0,0 C 57 % 90 % 0 % 995,0 hPa 0,0 l/m 5,3 km/h (1 Bft) 0,00 h 0,03 h 10,1 km/h (2 Bft)
14.12.2011 13:00 14,0 C 7,6 C 0,0 UV-I 0,0 C 56 % 88 % 1 % 995,1 hPa 0,0 l/m 8,6 km/h (2 Bft) 0,00 h 0,00 h 14,9 km/h (3 Bft)
14.12.2011 14:00 14,2 C 6,8 C 0,0 UV-I 0,0 C 56 % 87 % 0 % 995,8 hPa 1,4 l/m 10,9 km/h (2 Bft) 0,00 h 0,57 h 20,4 km/h (4 Bft)
14.12.2011 15:00 13,9 C 5,9 C 0,0 UV-I 0,0 C 55 % 87 % 0 % 996,9 hPa 0,0 l/m 10,5 km/h (2 Bft) 0,00 h 0,33 h 17,8 km/h (3 Bft)
14.12.2011 16:00 13,7 C 5,4 C 0,0 UV-I 0,0 C 55 % 89 % 0 % 997,8 hPa 1,1 l/m 8,7 km/h (2 Bft) 0,00 h 0,07 h 14,9 km/h (3 Bft)
14.12.2011 17:00 13,5 C 4,8 C 0,0 UV-I 0,0 C 55 % 89 % 0 % 999,4 hPa 0,0 l/m 10,3 km/h (2 Bft) 0,00 h 0,30 h 17,7 km/h (3 Bft)
14.12.2011 18:00 13,2 C 4,5 C 0,0 UV-I 0,0 C 54 % 89 % 0 % 1000,1 hPa 0,1 l/m 10,5 km/h (2 Bft) 0,00 h 0,07 h 19,0 km/h (3 Bft)
14.12.2011 19:00 13,1 C 4,3 C 0,0 UV-I 0,0 C 53 % 87 % 0 % 1000,9 hPa 0,0 l/m 11,3 km/h (2 Bft) 0,00 h 0,00 h 20,6 km/h (4 Bft)
14.12.2011 20:00 13,0 C 4,6 C 0,0 UV-I 0,0 C 52 % 86 % 0 % 1001,5 hPa 0,0 l/m 15,3 km/h (3 Bft) 0,00 h 0,00 h 25,8 km/h (4 Bft)
14.12.2011 21:00 12,9 C 4,4 C 0,0 UV-I 0,0 C 53 % 87 % 0 % 1002,1 hPa 0,0 l/m 13,5 km/h (3 Bft) 0,00 h 0,33 h 23,5 km/h (4 Bft)
14.12.2011 22:00 12,8 C 4,5 C 0,0 UV-I 0,0 C 53 % 88 % 0 % 1001,9 hPa 0,1 l/m 10,2 km/h (2 Bft) 0,00 h 0,00 h 22,5 km/h (4 Bft)
14.12.2011 23:00 12,8 C 5,2 C 0,0 UV-I 0,0 C 53 % 85 % 0 % 1001,5 hPa 0,0 l/m 12,1 km/h (2 Bft) 0,00 h 0,00 h 21,6 km/h (4 Bft)
15.12.2011 00:00 12,7 C 5,7 C 0,0 UV-I 0,0 C 52 % 81 % 0 % 1001,4 hPa 0,0 l/m 12,4 km/h (3 Bft) 0,00 h 0,00 h 28,5 km/h (4 Bft)
15.12.2011 01:00 12,8 C 5,9 C 0,0 UV-I 0,0 C 52 % 80 % 0 % 1001,6 hPa 0,0 l/m 10,6 km/h (2 Bft) 0,00 h 0,00 h 17,8 km/h (3 Bft)
15.12.2011 02:00 12,8 C 5,7 C 0,0 UV-I 0,0 C 51 % 78 % 0 % 1001,5 hPa 0,0 l/m 8,9 km/h (2 Bft) 0,00 h 0,00 h 15,4 km/h (3 Bft)
15.12.2011 03:00 13,0 C 5,4 C 0,0 UV-I 0,0 C 51 % 78 % 0 % 1001,1 hPa 0,0 l/m 4,0 km/h (1 Bft) 0,00 h 0,00 h 8,7 km/h (2 Bft)
15.12.2011 04:00 13,2 C 5,6 C 0,0 UV-I 0,0 C 51 % 80 % 0 % 1000,7 hPa 0,0 l/m 5,2 km/h (1 Bft) 0,00 h 0,00 h 10,8 km/h (2 Bft)
15.12.2011 05:00 13,2 C 6,0 C 0,0 UV-I 0,0 C 51 % 80 % 0 % 1000,6 hPa 0,0 l/m 8,9 km/h (2 Bft) 0,00 h 0,00 h 16,2 km/h (3 Bft)
15.12.2011 06:00 13,2 C 6,0 C 0,0 UV-I 0,0 C 51 % 80 % 0 % 1000,6 hPa 0,0 l/m 7,8 km/h (2 Bft) 0,00 h 0,00 h 13,6 km/h (3 Bft)
15.12.2011 07:00 13,2 C 6,0 C 0,0 UV-I 0,0 C 51 % 79 % 0 % 1000,7 hPa 0,0 l/m 8,5 km/h (2 Bft) 0,00 h 0,00 h 12,7 km/h (3 Bft)
15.12.2011 08:00 13,2 C 6,1 C 0,0 UV-I 0,0 C 51 % 78 % 0 % 1000,7 hPa 0,0 l/m 6,9 km/h (2 Bft) 0,00 h 0,00 h 11,2 km/h (2 Bft)
15.12.2011 09:00 13,2 C 6,4 C 0,0 UV-I 0,0 C 51 % 77 % 0 % 1000,7 hPa 0,0 l/m 8,5 km/h (2 Bft) 0,00 h 0,00 h 10,4 km/h (2 Bft)
15.12.2011 10:00 13,3 C 7,0 C 0,0 UV-I 0,0 C 50 % 76 % 0 % 1000,3 hPa 0,0 l/m 9,8 km/h (2 Bft) 0,00 h 0,00 h 18,4 km/h (3 Bft)
15.12.2011 11:00 13,4 C 7,3 C 0,0 UV-I 0,0 C 50 % 74 % 0 % 1000,1 hPa 0,0 l/m 14,0 km/h (3 Bft) 0,00 h 0,00 h 24,0 km/h (4 Bft)
15.12.2011 12:00 13,4 C 7,4 C 0,0 UV-I 0,0 C 50 % 74 % 0 % 1000,1 hPa 0,0 l/m 12,6 km/h (3 Bft) 0,00 h 0,00 h 20,7 km/h (4 Bft)
15.12.2011 13:00 13,4 C 6,9 C 0,0 UV-I 0,0 C 51 % 77 % 0 % 1000,0 hPa 0,0 l/m 12,8 km/h (3 Bft) 0,00 h 0,10 h 21,1 km/h (4 Bft)
15.12.2011 14:00 13,4 C 6,9 C 0,0 UV-I 0,0 C 51 % 79 % 0 % 1000,0 hPa 0,0 l/m 12,6 km/h (3 Bft) 0,00 h 0,27 h 20,3 km/h (4 Bft)
15.12.2011 15:00 13,4 C 7,1 C 0,0 UV-I 0,0 C 51 % 76 % 0 % 1000,4 hPa 0,0 l/m 13,8 km/h (3 Bft) 0,00 h 0,00 h 23,9 km/h (4 Bft)
15.12.2011 16:00 13,4 C 7,1 C 0,0 UV-I 0,0 C 50 % 76 % 0 % 1000,6 hPa 0,0 l/m 14,5 km/h (3 Bft) 0,00 h 0,00 h 23,3 km/h (4 Bft)
15.12.2011 17:00 13,5 C 7,2 C 0,0 UV-I 0,0 C 50 % 76 % 0 % 1001,1 hPa 0,0 l/m 17,9 km/h (3 Bft) 0,00 h 0,00 h 27,9 km/h (4 Bft)
15.12.2011 18:00 13,4 C 6,7 C 0,0 UV-I 0,0 C 50 % 78 % 0 % 1001,1 hPa 0,0 l/m 18,3 km/h (3 Bft) 0,00 h 0,00 h 30,0 km/h (5 Bft)
15.12.2011 19:00 13,2 C 6,3 C 0,0 UV-I 0,0 C 51 % 80 % 0 % 1001,4 hPa 0,0 l/m 15,8 km/h (3 Bft) 0,00 h 0,00 h 24,2 km/h (4 Bft)
15.12.2011 20:00 13,0 C 6,1 C 0,0 UV-I 0,0 C 51 % 81 % 0 % 1001,3 hPa 0,0 l/m 12,6 km/h (3 Bft) 0,00 h 0,00 h 21,0 km/h (4 Bft)
15.12.2011 21:00 12,9 C 6,1 C 0,0 UV-I 0,0 C 52 % 82 % 0 % 1001,0 hPa 0,0 l/m 11,5 km/h (2 Bft) 0,00 h 0,00 h 18,3 km/h (3 Bft)
15.12.2011 22:00 13,0 C 6,1 C 0,0 UV-I 0,0 C 52 % 82 % 0 % 1000,6 hPa 0,0 l/m 9,8 km/h (2 Bft) 0,00 h 0,00 h 17,2 km/h (3 Bft)
15.12.2011 23:00 13,1 C 6,0 C 0,0 UV-I 0,0 C 52 % 82 % 0 % 999,7 hPa 0,0 l/m 7,4 km/h (2 Bft) 0,00 h 0,00 h 12,8 km/h (3 Bft)
16.12.2011 00:00 13,2 C 6,1 C 0,0 UV-I 0,0 C 52 % 82 % 0 % 998,2 hPa 0,0 l/m 3,8 km/h (1 Bft) 0,00 h 0,00 h 8,5 km/h (2 Bft)
16.12.2011 01:00 13,4 C 5,9 C 0,0 UV-I 0,0 C 52 % 83 % 0 % 996,1 hPa 0,0 l/m 4,4 km/h (1 Bft) 0,00 h 0,00 h 8,7 km/h (2 Bft)
16.12.2011 02:00 13,5 C 6,1 C 0,0 UV-I 0,0 C 52 % 83 % 0 % 993,5 hPa 0,4 l/m 8,5 km/h (2 Bft) 0,00 h 0,57 h 14,9 km/h (3 Bft)
16.12.2011 03:00 13,6 C 5,4 C 0,0 UV-I 0,0 C 53 % 86 % 0 % 990,0 hPa 2,0 l/m 6,2 km/h (2 Bft) 0,00 h 1,00 h 11,7 km/h (2 Bft)
16.12.2011 04:00 13,6 C 4,9 C 0,0 UV-I 0,0 C 54 % 89 % 0 % 985,8 hPa 3,3 l/m 13,9 km/h (3 Bft) 0,00 h 0,17 h 23,5 km/h (4 Bft)
16.12.2011 05:00 13,6 C 4,2 C 0,0 UV-I 0,0 C 54 % 90 % 0 % 981,4 hPa 4,4 l/m 14,4 km/h (3 Bft) 0,00 h 0,00 h 24,9 km/h (4 Bft)
16.12.2011 06:00 13,4 C 4,0 C 0,0 UV-I 0,0 C 54 % 91 % 0 % 976,7 hPa 5,9 l/m 13,4 km/h (3 Bft) 0,00 h 0,00 h 24,9 km/h (4 Bft)
16.12.2011 07:00 13,4 C 4,1 C 0,0 UV-I 0,0 C 54 % 92 % 0 % 972,8 hPa 5,2 l/m 13,7 km/h (3 Bft) 0,00 h 0,43 h 23,5 km/h (4 Bft)
16.12.2011 08:00 13,4 C 4,5 C 0,0 UV-I 0,0 C 54 % 92 % 0 % 969,6 hPa 2,0 l/m 13,4 km/h (3 Bft) 0,00 h 0,87 h 20,5 km/h (4 Bft)
16.12.2011 09:00 13,5 C 5,3 C 0,0 UV-I 0,0 C 55 % 93 % 0 % 967,1 hPa 1,1 l/m 6,5 km/h (2 Bft) 0,00 h 0,70 h 11,6 km/h (2 Bft)
16.12.2011 10:00 13,7 C 7,9 C 0,0 UV-I 0,0 C 58 % 94 % 0 % 965,4 hPa 0,7 l/m 8,0 km/h (2 Bft) 0,00 h 0,83 h 15,8 km/h (3 Bft)
16.12.2011 11:00 13,8 C 8,3 C 0,0 UV-I 0,0 C 61 % 92 % 0 % 966,1 hPa 0,5 l/m 15,5 km/h (3 Bft) 0,00 h 0,30 h 26,6 km/h (4 Bft)
16.12.2011 12:00 13,6 C 4,4 C 0,0 UV-I 0,0 C 57 % 91 % 0 % 968,9 hPa 0,2 l/m 14,6 km/h (3 Bft) 0,00 h 0,70 h 23,5 km/h (4 Bft)
16.12.2011 13:00 13,4 C 3,0 C 0,0 UV-I 0,0 C 55 % 92 % 0 % 970,8 hPa 0,2 l/m 10,8 km/h (2 Bft) 0,00 h 0,70 h 18,8 km/h (3 Bft)
16.12.2011 14:00 13,1 C 2,9 C 0,0 UV-I 0,0 C 54 % 93 % 0 % 972,7 hPa 0,5 l/m 10,4 km/h (2 Bft) 0,00 h 0,97 h 21,8 km/h (4 Bft)
16.12.2011 15:00 13,2 C 3,2 C 0,0 UV-I 0,0 C 54 % 93 % 0 % 974,8 hPa 0,4 l/m 9,6 km/h (2 Bft) 0,00 h 0,73 h 15,6 km/h (3 Bft)
16.12.2011 16:00 13,2 C 3,7 C 0,0 UV-I 0,0 C 54 % 93 % 0 % 977,2 hPa 0,1 l/m 10,0 km/h (2 Bft) 0,00 h 0,17 h 16,3 km/h (3 Bft)
16.12.2011 17:00 13,2 C 4,1 C 0,0 UV-I 0,0 C 55 % 92 % 0 % 980,0 hPa 0,2 l/m 10,7 km/h (2 Bft) 0,00 h 0,97 h 19,7 km/h (3 Bft)
16.12.2011 18:00 13,1 C 4,3 C 0,0 UV-I 0,0 C 55 % 92 % 0 % 982,7 hPa 0,1 l/m 9,2 km/h (2 Bft) 0,00 h 0,00 h 14,4 km/h (3 Bft)
16.12.2011 19:00 13,2 C 4,4 C 0,0 UV-I 0,0 C 55 % 92 % 0 % 984,9 hPa 0,0 l/m 8,9 km/h (2 Bft) 0,00 h 0,27 h 16,5 km/h (3 Bft)
16.12.2011 20:00 13,2 C 4,3 C 0,0 UV-I 0,0 C 54 % 92 % 0 % 986,3 hPa 0,0 l/m 10,0 km/h (2 Bft) 0,00 h 0,00 h 17,8 km/h (3 Bft)
16.12.2011 21:00 13,0 C 3,3 C 0,0 UV-I 0,0 C 53 % 91 % 0 % 987,9 hPa 0,0 l/m 10,0 km/h (2 Bft) 0,00 h 0,00 h 16,1 km/h (3 Bft)
16.12.2011 22:00 12,9 C 2,6 C 0,0 UV-I 0,0 C 53 % 91 % 0 % 989,5 hPa 0,0 l/m 7,3 km/h (2 Bft) 0,00 h 0,00 h 12,6 km/h (3 Bft)
16.12.2011 23:00 12,9 C 2,5 C 0,0 UV-I 0,0 C 52 % 92 % 0 % 990,5 hPa 0,0 l/m 6,0 km/h (2 Bft) 0,00 h 0,10 h 11,8 km/h (2 Bft)
17.12.2011 00:00 13,0 C 2,8 C 0,0 UV-I 0,0 C 53 % 93 % 0 % 991,6 hPa 0,0 l/m 5,2 km/h (1 Bft) 0,00 h 0,00 h 9,3 km/h (2 Bft)
17.12.2011 01:00 13,1 C 2,9 C 0,0 UV-I 0,0 C 53 % 93 % 0 % 992,6 hPa 0,0 l/m 5,6 km/h (1 Bft) 0,00 h 0,17 h 10,2 km/h (2 Bft)
17.12.2011 02:00 13,2 C 3,1 C 0,0 UV-I 0,0 C 53 % 93 % 0 % 993,6 hPa 0,0 l/m 4,7 km/h (1 Bft) 0,00 h 0,00 h 10,0 km/h (2 Bft)
17.12.2011 03:00 13,2 C 3,3 C 0,0 UV-I 0,0 C 53 % 93 % 0 % 994,8 hPa 0,0 l/m 4,6 km/h (1 Bft) 0,00 h 0,00 h 9,5 km/h (2 Bft)
17.12.2011 04:00 13,1 C 3,6 C 0,0 UV-I 0,0 C 53 % 92 % 0 % 995,9 hPa 0,0 l/m 3,6 km/h (1 Bft) 0,00 h 0,20 h 7,9 km/h (2 Bft)
17.12.2011 05:00 13,2 C 3,7 C 0,0 UV-I 0,0 C 53 % 92 % 0 % 997,0 hPa 0,1 l/m 4,2 km/h (1 Bft) 0,00 h 0,17 h 9,8 km/h (2 Bft)
17.12.2011 06:00 13,2 C 3,2 C 0,0 UV-I 0,0 C 52 % 91 % 0 % 998,3 hPa 0,0 l/m 4,1 km/h (1 Bft) 0,00 h 0,00 h 8,3 km/h (2 Bft)
17.12.2011 07:00 13,1 C 3,2 C 0,0 UV-I 0,0 C 52 % 91 % 0 % 999,1 hPa 0,0 l/m 5,4 km/h (1 Bft) 0,00 h 0,00 h 10,3 km/h (2 Bft)
17.12.2011 08:00 13,1 C 3,1 C 0,0 UV-I 0,0 C 52 % 91 % 0 % 1000,1 hPa 0,0 l/m 4,1 km/h (1 Bft) 0,00 h 0,00 h 10,9 km/h (2 Bft)
17.12.2011 09:00 13,1 C 3,2 C 0,0 UV-I 0,0 C 52 % 90 % 0 % 1001,4 hPa 0,0 l/m 3,4 km/h (1 Bft) 0,00 h 0,00 h 7,1 km/h (2 Bft)
17.12.2011 10:00 13,2 C 3,8 C 0,0 UV-I 2,4 C 52 % 89 % 67 % 1002,1 hPa 0,0 l/m 5,3 km/h (1 Bft) 0,83 h 0,00 h 10,1 km/h (2 Bft)
17.12.2011 11:00 13,2 C 4,8 C 0,1 UV-I 2,7 C 52 % 87 % 73 % 1002,9 hPa 0,0 l/m 5,8 km/h (2 Bft) 0,70 h 0,00 h 10,0 km/h (2 Bft)
17.12.2011 12:00 13,3 C 5,8 C 0,2 UV-I 2,9 C 51 % 84 % 79 % 1003,3 hPa 0,0 l/m 8,2 km/h (2 Bft) 0,73 h 0,00 h 15,2 km/h (3 Bft)
17.12.2011 13:00 13,6 C 6,3 C 0,1 UV-I 1,3 C 51 % 83 % 39 % 1003,7 hPa 0,0 l/m 7,7 km/h (2 Bft) 0,10 h 0,00 h 13,9 km/h (3 Bft)
17.12.2011 14:00 14,0 C 6,9 C 0,0 UV-I 1,4 C 51 % 81 % 41 % 1004,0 hPa 0,0 l/m 9,8 km/h (2 Bft) 0,37 h 0,00 h 16,2 km/h (3 Bft)
17.12.2011 15:00 14,0 C 6,5 C 0,0 UV-I 0,0 C 49 % 79 % 0 % 1004,6 hPa 0,0 l/m 9,5 km/h (2 Bft) 0,00 h 0,00 h 13,8 km/h (3 Bft)
17.12.2011 16:00 13,3 C 5,5 C 0,0 UV-I 0,0 C 49 % 79 % 0 % 1004,7 hPa 0,0 l/m 4,8 km/h (1 Bft) 0,00 h 0,00 h 9,9 km/h (2 Bft)
17.12.2011 17:00 12,8 C 4,3 C 0,0 UV-I 0,0 C 50 % 81 % 0 % 1004,9 hPa 0,0 l/m 0,8 km/h (0 Bft) 0,00 h 0,00 h 1,9 km/h (1 Bft)
17.12.2011 18:00 12,4 C 3,5 C 0,0 UV-I 0,0 C 50 % 84 % 0 % 1004,7 hPa 0,0 l/m 1,3 km/h (1 Bft) 0,00 h 0,00 h 4,4 km/h (1 Bft)
17.12.2011 19:00 12,1 C 3,5 C 0,0 UV-I 0,0 C 52 % 87 % 0 % 1004,8 hPa 0,0 l/m 3,2 km/h (1 Bft) 0,00 h 0,00 h 6,9 km/h (2 Bft)
17.12.2011 20:00 12,0 C 3,6 C 0,0 UV-I 0,0 C 52 % 87 % 0 % 1004,8 hPa 0,0 l/m 6,0 km/h (2 Bft) 0,00 h 0,00 h 12,6 km/h (3 Bft)
17.12.2011 21:00 11,8 C 3,6 C 0,0 UV-I 0,0 C 52 % 87 % 0 % 1004,1 hPa 0,0 l/m 6,6 km/h (2 Bft) 0,00 h 0,00 h 12,4 km/h (3 Bft)
17.12.2011 22:00 11,7 C 3,8 C 0,0 UV-I 0,0 C 52 % 87 % 0 % 1004,1 hPa 0,0 l/m 8,8 km/h (2 Bft) 0,00 h 0,17 h 14,1 km/h (3 Bft)
17.12.2011 23:00 11,5 C 2,7 C 0,0 UV-I 0,0 C 53 % 88 % 0 % 1004,2 hPa 1,1 l/m 7,6 km/h (2 Bft) 0,00 h 0,97 h 14,1 km/h (3 Bft)
18.12.2011 00:00 11,1 C 1,8 C 0,0 UV-I 0,0 C 53 % 90 % 0 % 1004,0 hPa 1,0 l/m 5,8 km/h (2 Bft) 0,00 h 1,00 h 10,1 km/h (2 Bft)
18.12.2011 01:00 11,0 C 1,9 C 0,0 UV-I 0,0 C 54 % 91 % 0 % 1003,9 hPa 1,2 l/m 3,4 km/h (1 Bft) 0,00 h 0,97 h 7,7 km/h (2 Bft)
18.12.2011 02:00 11,0 C 2,2 C 0,0 UV-I 0,0 C 55 % 92 % 0 % 1004,1 hPa 0,4 l/m 3,0 km/h (1 Bft) 0,00 h 0,93 h 7,1 km/h (2 Bft)
18.12.2011 03:00 11,1 C 2,5 C 0,0 UV-I 0,0 C 55 % 92 % 0 % 1004,1 hPa 0,0 l/m 4,2 km/h (1 Bft) 0,00 h 0,27 h 7,8 km/h (2 Bft)
18.12.2011 04:00 11,1 C 2,5 C 0,0 UV-I 0,0 C 55 % 92 % 0 % 1004,2 hPa 0,1 l/m 3,9 km/h (1 Bft) 0,00 h 0,23 h 10,6 km/h (2 Bft)
18.12.2011 05:00 11,1 C 2,2 C 0,0 UV-I 0,0 C 55 % 92 % 0 % 1004,6 hPa 0,5 l/m 3,3 km/h (1 Bft) 0,00 h 0,93 h 7,0 km/h (2 Bft)
18.12.2011 06:00 11,2 C 1,7 C 0,0 UV-I 0,0 C 55 % 92 % 0 % 1005,2 hPa 1,0 l/m 2,2 km/h (1 Bft) 0,00 h 0,87 h 6,7 km/h (2 Bft)
18.12.2011 07:00 11,2 C 1,1 C 0,0 UV-I 0,0 C 54 % 92 % 0 % 1005,7 hPa 0,5 l/m 2,2 km/h (1 Bft) 0,00 h 0,40 h 5,0 km/h (1 Bft)
18.12.2011 08:00 11,1 C 1,4 C 0,0 UV-I 0,0 C 54 % 93 % 0 % 1006,5 hPa 0,1 l/m 3,5 km/h (1 Bft) 0,00 h 0,00 h 7,9 km/h (2 Bft)
18.12.2011 09:00 11,1 C 1,6 C 0,0 UV-I 0,0 C 54 % 93 % 0 % 1007,4 hPa 0,0 l/m 4,9 km/h (1 Bft) 0,00 h 0,00 h 10,1 km/h (2 Bft)
18.12.2011 10:00 11,6 C 1,7 C 0,0 UV-I 1,8 C 54 % 93 % 50 % 1008,4 hPa 0,1 l/m 4,6 km/h (1 Bft) 0,50 h 0,00 h 10,0 km/h (2 Bft)
18.12.2011 11:00 11,9 C 3,0 C 0,1 UV-I 3,8 C 53 % 93 % 99 % 1009,1 hPa 0,0 l/m 6,6 km/h (2 Bft) 0,97 h 0,00 h 11,3 km/h (2 Bft)
18.12.2011 12:00 12,2 C 4,4 C 0,3 UV-I 4,0 C 53 % 89 % 100 % 1009,4 hPa 0,0 l/m 8,5 km/h (2 Bft) 0,97 h 0,07 h 16,3 km/h (3 Bft)
18.12.2011 13:00 12,5 C 5,0 C 0,2 UV-I 3,8 C 52 % 86 % 95 % 1009,6 hPa 0,0 l/m 7,9 km/h (2 Bft) 0,97 h 0,03 h 15,1 km/h (3 Bft)
18.12.2011 14:00 13,3 C 4,8 C 0,1 UV-I 1,7 C 50 % 84 % 47 % 1010,2 hPa 0,0 l/m 10,3 km/h (2 Bft) 0,47 h 0,00 h 17,9 km/h (3 Bft)
18.12.2011 15:00 13,1 C 3,0 C 0,0 UV-I 0,0 C 50 % 86 % 0 % 1010,8 hPa 0,0 l/m 9,4 km/h (2 Bft) 0,00 h 0,00 h 15,6 km/h (3 Bft)
18.12.2011 16:00 12,7 C 2,6 C 0,0 UV-I 0,0 C 50 % 87 % 0 % 1011,3 hPa 0,0 l/m 4,6 km/h (1 Bft) 0,00 h 0,00 h 10,5 km/h (2 Bft)
18.12.2011 17:00 12,6 C 2,3 C 0,0 UV-I 0,0 C 50 % 88 % 0 % 1011,5 hPa 0,0 l/m 0,4 km/h (0 Bft) 0,00 h 0,00 h 1,2 km/h (1 Bft)
18.12.2011 18:00 12,4 C 1,8 C 0,0 UV-I 0,0 C 51 % 89 % 0 % 1011,6 hPa 0,0 l/m 3,2 km/h (1 Bft) 0,00 h 0,00 h 8,4 km/h (2 Bft)
18.12.2011 19:00 12,2 C 1,5 C 0,0 UV-I 0,0 C 51 % 89 % 0 % 1011,8 hPa 0,0 l/m 3,8 km/h (1 Bft) 0,00 h 0,00 h 8,5 km/h (2 Bft)
18.12.2011 20:00 12,1 C 1,5 C 0,0 UV-I 0,0 C 50 % 89 % 0 % 1012,1 hPa 0,0 l/m 6,4 km/h (2 Bft) 0,00 h 0,00 h 10,7 km/h (2 Bft)
18.12.2011 21:00 12,0 C 1,5 C 0,0 UV-I 0,0 C 50 % 89 % 0 % 1012,2 hPa 0,0 l/m 6,4 km/h (2 Bft) 0,00 h 0,00 h 11,8 km/h (2 Bft)
18.12.2011 22:00 11,9 C 1,6 C 0,0 UV-I 0,0 C 50 % 89 % 0 % 1012,7 hPa 0,0 l/m 5,4 km/h (1 Bft) 0,00 h 0,00 h 9,9 km/h (2 Bft)
18.12.2011 23:00 11,9 C 1,7 C 0,0 UV-I 0,0 C 50 % 89 % 0 % 1012,9 hPa 0,0 l/m 4,4 km/h (1 Bft) 0,00 h 0,00 h 8,9 km/h (2 Bft)
Min-Datum _ 18.12.11 18.12.11 12.12.11 12.12.11 12.12.11 13.12.11 12.12.11 16.12.11 - 17.12.11 - - 12.12.11
_ Min-Zeit 00:52 07:10 00:00 00:00 00:00 03:08 00:00 10:44 - 17:44 - - 01:05
Minimum _ 10,9 C 1,0 C 0,0 UV-I 0,0 C 48 % 72 % 0 % 964,9 hPa - 0,0 km/h (0 Bft) - - 0,0 km/h (0 Bft)
Max-Datum _ 13.12.11 13.12.11 17.12.11 18.12.11 16.12.11 16.12.11 17.12.11 18.12.11 16.12.11 15.12.11 12.12.11 12.12.11 14.12.11
_ Max-Zeit 14:10 11:24 12:08 13:12 11:20 10:20 11:04 23:24 06:54 18:06 13:54 01:10 08:32
Maximum _ 15,3 C 11,9 C 0,3 UV-I 4,6 C 62 % 94 % 100 % 1013,1 hPa 5,9 l/m 22,5 km/h
SW (4 Bft)
0,03 h 0,03 h 73,5 km/h
SO (8 Bft)
Durchschnitt _ 13,3 C 5,5 C 0,0 UV-I 0,2 C 53 % 85 % 5 % 998,6 hPa #51,9 l/m 8,7 km/h (2 Bft) #7:16 h #28:26 h 15,4 km/h (3 Bft)
© 2012 W. Hausmann